DNGO

Gombe Airport

Gombe, Nigeria
METAR DNGO 241300Z 27016KT CAVOK 34/22 Q1008
Observed Flight Rules
May-24 @ 13:00 UTC (57 minutes ago) Visual Flight Rules
Wind Visibility Clouds
270° at 16 knots 10,000+ meters
  • Clear skies
Temperatures Readings
Current 34°C / 93°F
Dewpoint 22°C / 72°F
Humidity 49%
Altimeter 29.76" Hg
Pressure 1008 hPa
Elevation 505
METAR DNGO 241300Z 27016KT CAVOK 34/22 Q1008
Observed Flight Rules
May-24 @ 13:00 UTC
(57 minutes ago)
VFR
Wind Visibility
270° at 16 knots 10,000+ meters
Clouds
  • Clear skies
Temperature Dewpoint
34°C / 93°F 22°C / 72°F
Humidity Altimeter Pressure
49% 29.76" Hg 1008 hPa